Etusivu
METAR-TAF:

METAR-TAF

Lentoasemat :

Adrian, Michigan, Yhdysvallat

Leveyspiiri: 41-52-04N, Pituuspiiri: 084-04-46W, korkeus merenpinnasta: 244 m

Tämänhetkinen sää

Tämä raportti tehtiin 26 minuuttia sitten, kello 08.53 UTC
Tuuli 3 kn etelästä
Lämpötila 1°C
Kosteus 93%
Ilmanpaine 1010 hPa
Näkyvyys: 6.4 km
Pilvistä 500 ft:n korkeudessa
utua

METAR: KADG 180853Z AUTO 17003KT 4SM BR OVC005 01/00 A2982 RMK AO2 CIG 004V010 SLP106 60001 T00060000 56020

Aika: 04:19 (09:19 UTC)


TAF: puuttuu

Säähavainnot ja -ennusteet yli 4000 lentoasemalta (METAR- ja TAF-raportit).

Käytössä olevat sääasemat on merkitty karttaan keltaisilla ja punaisilla pisteillä.

Aseta hiiri pisteen päälle nähdäksesi sääaseman nimen.

Klikkaa sitten nähdäksesi säähavainnot ja -ennusteet.

Kartan vaihtaminen: klikkaa mustalla rastilla varustettuja vihreitä pisteitä, niin voit zoomata sisään; viivalla varustettua vihreää pistettä, niin voit zoomata ulos tai vihreitä nuolia, niin pääset viereisille kartoille.


METAR-TAF: